sensor_id;sensor_type;location;lat;lon;timestamp;pressure;altitude;pressure_sealevel;temperature;humidity
17311;BME280;8773;43.300;0.394;2023-04-03T00:01:10;100608.34;;;11.58;66.00
17311;BME280;8773;43.300;0.394;2023-04-03T00:03:39;100609.34;;;11.57;65.92
17311;BME280;8773;43.300;0.394;2023-04-03T00:06:08;100601.22;;;11.49;66.50
17311;BME280;8773;43.300;0.394;2023-04-03T00:08:38;100609.34;;;11.57;65.95
17311;BME280;8773;43.300;0.394;2023-04-03T00:11:06;100594.72;;;11.52;66.70
17311;BME280;8773;43.300;0.394;2023-04-03T00:13:35;100598.94;;;11.54;66.86
17311;BME280;8773;43.300;0.394;2023-04-03T00:16:04;100599.22;;;11.51;66.01
17311;BME280;8773;43.300;0.394;2023-04-03T00:18:34;100596.56;;;11.51;66.39
17311;BME280;8773;43.300;0.394;2023-04-03T00:21:03;100597.13;;;11.45;67.34
17311;BME280;8773;43.300;0.394;2023-04-03T00:23:31;100593.56;;;11.54;67.16
17311;BME280;8773;43.300;0.394;2023-04-03T00:25:59;100591.03;;;11.62;66.61
17311;BME280;8773;43.300;0.394;2023-04-03T00:28:27;100589.50;;;11.60;66.89
17311;BME280;8773;43.300;0.394;2023-04-03T00:30:55;100585.88;;;11.51;67.47
17311;BME280;8773;43.300;0.394;2023-04-03T00:33:23;100590.50;;;11.49;66.29
17311;BME280;8773;43.300;0.394;2023-04-03T00:35:52;100583.47;;;11.48;67.22
17311;BME280;8773;43.300;0.394;2023-04-03T00:38:20;100578.41;;;11.45;66.96
17311;BME280;8773;43.300;0.394;2023-04-03T00:40:49;100577.00;;;11.41;66.51
17311;BME280;8773;43.300;0.394;2023-04-03T00:43:19;100576.44;;;11.37;67.73
17311;BME280;8773;43.300;0.394;2023-04-03T00:45:48;100575.59;;;11.37;66.92
17311;BME280;8773;43.300;0.394;2023-04-03T00:48:20;100569.38;;;11.27;67.35
17311;BME280;8773;43.300;0.394;2023-04-03T00:50:48;100572.72;;;11.19;68.43
17311;BME280;8773;43.300;0.394;2023-04-03T00:53:22;100557.84;;;11.26;68.23
17311;BME280;8773;43.300;0.394;2023-04-03T00:55:51;100554.19;;;11.27;68.48
17311;BME280;8773;43.300;0.394;2023-04-03T00:58:25;100558.97;;;11.33;67.49
17311;BME280;8773;43.300;0.394;2023-04-03T01:00:55;100555.59;;;11.41;66.87
17311;BME280;8773;43.300;0.394;2023-04-03T01:03:25;100561.22;;;11.28;66.87
17311;BME280;8773;43.300;0.394;2023-04-03T01:05:53;100552.75;;;11.23;68.02
17311;BME280;8773;43.300;0.394;2023-04-03T01:08:23;100555.47;;;11.33;68.25
17311;BME280;8773;43.300;0.394;2023-04-03T01:10:51;100542.22;;;11.41;66.98
17311;BME280;8773;43.300;0.394;2023-04-03T01:13:22;100543.34;;;11.29;68.39
17311;BME280;8773;43.300;0.394;2023-04-03T01:15:50;100540.97;;;11.26;67.41
17311;BME280;8773;43.300;0.394;2023-04-03T01:18:19;100538.00;;;11.29;67.52
17311;BME280;8773;43.300;0.394;2023-04-03T01:21:26;100534.88;;;11.24;67.50
17311;BME280;8773;43.300;0.394;2023-04-03T01:24:19;100537.31;;;11.27;67.83
17311;BME280;8773;43.300;0.394;2023-04-03T01:26:49;100530.41;;;11.34;67.43
17311;BME280;8773;43.300;0.394;2023-04-03T01:29:17;100526.72;;;11.25;67.04
17311;BME280;8773;43.300;0.394;2023-04-03T01:31:51;100531.22;;;11.25;67.25
17311;BME280;8773;43.300;0.394;2023-04-03T01:34:20;100526.00;;;11.14;67.81
17311;BME280;8773;43.300;0.394;2023-04-03T01:36:48;100520.53;;;11.05;68.24
17311;BME280;8773;43.300;0.394;2023-04-03T01:39:17;100517.31;;;11.02;68.09
17311;BME280;8773;43.300;0.394;2023-04-03T01:41:45;100523.06;;;11.07;68.31
17311;BME280;8773;43.300;0.394;2023-04-03T01:44:13;100515.31;;;11.14;67.99
17311;BME280;8773;43.300;0.394;2023-04-03T01:46:41;100520.78;;;11.12;68.82
17311;BME280;8773;43.300;0.394;2023-04-03T01:49:11;100520.38;;;11.17;67.93
17311;BME280;8773;43.300;0.394;2023-04-03T01:51:39;100515.31;;;11.14;67.53
17311;BME280;8773;43.300;0.394;2023-04-03T01:54:07;100517.84;;;11.25;67.26
17311;BME280;8773;43.300;0.394;2023-04-03T01:56:35;100511.81;;;11.23;68.00
17311;BME280;8773;43.300;0.394;2023-04-03T01:59:03;100513.09;;;11.28;67.53
17311;BME280;8773;43.300;0.394;2023-04-03T02:01:31;100512.81;;;11.31;66.84
17311;BME280;8773;43.300;0.394;2023-04-03T02:03:59;100506.34;;;11.34;67.35
17311;BME280;8773;43.300;0.394;2023-04-03T02:06:28;100510.28;;;11.30;67.46
17311;BME280;8773;43.300;0.394;2023-04-03T02:08:56;100508.97;;;11.15;67.31
17311;BME280;8773;43.300;0.394;2023-04-03T02:11:24;100501.69;;;11.26;67.94
17311;BME280;8773;43.300;0.394;2023-04-03T02:13:52;100510.81;;;11.24;67.04
17311;BME280;8773;43.300;0.394;2023-04-03T02:16:20;100499.31;;;11.33;67.67
17311;BME280;8773;43.300;0.394;2023-04-03T02:18:48;100498.72;;;11.20;68.32
17311;BME280;8773;43.300;0.394;2023-04-03T02:21:16;100495.34;;;11.18;67.41
17311;BME280;8773;43.300;0.394;2023-04-03T02:23:45;100496.59;;;11.14;68.06
17311;BME280;8773;43.300;0.394;2023-04-03T02:26:14;100495.38;;;11.08;67.79
17311;BME280;8773;43.300;0.394;2023-04-03T02:28:43;100488.72;;;11.12;68.60
17311;BME280;8773;43.300;0.394;2023-04-03T02:31:11;100497.44;;;11.24;68.10
17311;BME280;8773;43.300;0.394;2023-04-03T02:33:39;100487.03;;;11.21;67.13
17311;BME280;8773;43.300;0.394;2023-04-03T02:36:08;100493.38;;;11.20;68.25
17311;BME280;8773;43.300;0.394;2023-04-03T02:38:36;100475.66;;;11.19;68.33
17311;BME280;8773;43.300;0.394;2023-04-03T02:41:08;100485.63;;;11.17;68.24
17311;BME280;8773;43.300;0.394;2023-04-03T02:43:37;100486.91;;;11.13;68.37
17311;BME280;8773;43.300;0.394;2023-04-03T02:46:06;100485.66;;;11.07;68.40
17311;BME280;8773;43.300;0.394;2023-04-03T02:48:34;100482.13;;;11.16;67.90
17311;BME280;8773;43.300;0.394;2023-04-03T02:51:02;100482.97;;;11.17;68.09
17311;BME280;8773;43.300;0.394;2023-04-03T02:53:30;100483.81;;;11.17;68.96
17311;BME280;8773;43.300;0.394;2023-04-03T02:55:58;100474.50;;;11.12;67.68
17311;BME280;8773;43.300;0.394;2023-04-03T02:58:27;100476.22;;;11.13;69.24
17311;BME280;8773;43.300;0.394;2023-04-03T03:00:55;100464.97;;;11.09;68.52
17311;BME280;8773;43.300;0.394;2023-04-03T03:03:23;100462.69;;;11.14;67.88
17311;BME280;8773;43.300;0.394;2023-04-03T03:06:00;100470.19;;;11.01;69.15
17311;BME280;8773;43.300;0.394;2023-04-03T03:08:28;100465.53;;;11.03;68.51
17311;BME280;8773;43.300;0.394;2023-04-03T03:10:57;100466.09;;;11.06;69.05
17311;BME280;8773;43.300;0.394;2023-04-03T03:13:25;100450.47;;;11.12;68.72
17311;BME280;8773;43.300;0.394;2023-04-03T03:15:54;100457.91;;;11.18;68.60
17311;BME280;8773;43.300;0.394;2023-04-03T03:18:22;100455.53;;;11.24;68.52
17311;BME280;8773;43.300;0.394;2023-04-03T03:20:51;100448.22;;;11.17;68.87
17311;BME280;8773;43.300;0.394;2023-04-03T03:23:21;100454.25;;;11.19;69.24
17311;BME280;8773;43.300;0.394;2023-04-03T03:25:53;100449.75;;;11.19;68.25
17311;BME280;8773;43.300;0.394;2023-04-03T03:28:22;100447.94;;;11.20;67.89
17311;BME280;8773;43.300;0.394;2023-04-03T03:30:50;100442.19;;;11.05;68.30
17311;BME280;8773;43.300;0.394;2023-04-03T03:33:19;100445.00;;;11.03;68.96
17311;BME280;8773;43.300;0.394;2023-04-03T03:35:47;100447.53;;;11.05;68.43
17311;BME280;8773;43.300;0.394;2023-04-03T03:38:15;100442.59;;;11.10;68.11
17311;BME280;8773;43.300;0.394;2023-04-03T03:40:43;100435.31;;;11.02;68.17
17311;BME280;8773;43.300;0.394;2023-04-03T03:43:12;100436.25;;;11.11;68.00
17311;BME280;8773;43.300;0.394;2023-04-03T03:45:40;100435.88;;;11.06;68.76
17311;BME280;8773;43.300;0.394;2023-04-03T03:48:08;100432.06;;;11.08;68.56
17311;BME280;8773;43.300;0.394;2023-04-03T03:50:37;100441.91;;;11.08;68.47
17311;BME280;8773;43.300;0.394;2023-04-03T03:53:05;100434.84;;;11.17;68.41
17311;BME280;8773;43.300;0.394;2023-04-03T03:55:33;100430.91;;;11.21;67.71
17311;BME280;8773;43.300;0.394;2023-04-03T03:58:01;100434.56;;;11.20;68.22
17311;BME280;8773;43.300;0.394;2023-04-03T04:00:30;100434.41;;;11.21;68.37
17311;BME280;8773;43.300;0.394;2023-04-03T04:02:58;100429.78;;;11.23;68.38
17311;BME280;8773;43.300;0.394;2023-04-03T04:05:27;100425.69;;;11.19;68.52
17311;BME280;8773;43.300;0.394;2023-04-03T04:07:56;100420.66;;;11.26;67.92
17311;BME280;8773;43.300;0.394;2023-04-03T04:10:24;100425.28;;;11.24;68.68
17311;BME280;8773;43.300;0.394;2023-04-03T04:12:52;100421.63;;;11.25;68.66
17311;BME280;8773;43.300;0.394;2023-04-03T04:15:22;100419.94;;;11.24;67.92
17311;BME280;8773;43.300;0.394;2023-04-03T04:17:52;100418.38;;;11.21;68.22
17311;BME280;8773;43.300;0.394;2023-04-03T04:20:20;100417.81;;;11.18;67.75
17311;BME280;8773;43.300;0.394;2023-04-03T04:22:48;100417.69;;;11.19;68.25
17311;BME280;8773;43.300;0.394;2023-04-03T04:25:18;100416.84;;;11.19;68.31
17311;BME280;8773;43.300;0.394;2023-04-03T04:27:46;100420.50;;;11.18;67.62
17311;BME280;8773;43.300;0.394;2023-04-03T04:30:14;100418.66;;;11.18;67.56
17311;BME280;8773;43.300;0.394;2023-04-03T04:32:42;100417.69;;;11.19;67.80
17311;BME280;8773;43.300;0.394;2023-04-03T04:35:10;100421.34;;;11.18;67.44
17311;BME280;8773;43.300;0.394;2023-04-03T04:37:40;100422.19;;;11.19;66.79
17311;BME280;8773;43.300;0.394;2023-04-03T04:40:09;100414.03;;;11.20;67.64
17311;BME280;8773;43.300;0.394;2023-04-03T04:42:38;100417.81;;;11.18;66.93
17311;BME280;8773;43.300;0.394;2023-04-03T04:45:07;100414.31;;;11.17;68.04
17311;BME280;8773;43.300;0.394;2023-04-03T04:47:35;100411.91;;;11.24;68.04
17311;BME280;8773;43.300;0.394;2023-04-03T04:50:03;100405.03;;;11.21;67.01
17311;BME280;8773;43.300;0.394;2023-04-03T04:52:32;100413.75;;;11.23;67.29
17311;BME280;8773;43.300;0.394;2023-04-03T04:55:00;100407.28;;;11.26;67.30
17311;BME280;8773;43.300;0.394;2023-04-03T04:57:28;100417.25;;;11.14;67.88
17311;BME280;8773;43.300;0.394;2023-04-03T04:59:57;100418.28;;;11.03;68.30
17311;BME280;8773;43.300;0.394;2023-04-03T05:02:25;100414.91;;;11.01;68.12
17311;BME280;8773;43.300;0.394;2023-04-03T05:04:55;100413.22;;;11.00;68.53
17311;BME280;8773;43.300;0.394;2023-04-03T05:07:23;100415.63;;;10.94;68.70
17311;BME280;8773;43.300;0.394;2023-04-03T05:09:52;100411.97;;;11.04;68.18
17311;BME280;8773;43.300;0.394;2023-04-03T05:12:20;100407.84;;;11.10;68.50
17311;BME280;8773;43.300;0.394;2023-04-03T05:14:48;100401.13;;;11.06;67.50
17311;BME280;8773;43.300;0.394;2023-04-03T05:17:17;100410.97;;;11.05;68.38
17311;BME280;8773;43.300;0.394;2023-04-03T05:19:46;100405.91;;;11.02;68.70
17311;BME280;8773;43.300;0.394;2023-04-03T05:22:13;100391.84;;;11.00;68.47
17311;BME280;8773;43.300;0.394;2023-04-03T05:24:41;100393.53;;;11.01;69.11
17311;BME280;8773;43.300;0.394;2023-04-03T05:27:09;100395.22;;;11.02;67.72
17311;BME280;8773;43.300;0.394;2023-04-03T05:29:37;100393.94;;;11.06;68.13
17311;BME280;8773;43.300;0.394;2023-04-03T05:32:05;100399.72;;;10.92;68.62
17311;BME280;8773;43.300;0.394;2023-04-03T05:34:35;100399.59;;;10.84;69.00
17311;BME280;8773;43.300;0.394;2023-04-03T05:37:03;100395.22;;;10.83;69.30
17311;BME280;8773;43.300;0.394;2023-04-03T05:39:32;100403.53;;;10.90;69.29
17311;BME280;8773;43.300;0.394;2023-04-03T05:42:00;100401.69;;;10.90;68.49
17311;BME280;8773;43.300;0.394;2023-04-03T05:44:28;100403.09;;;10.94;68.39
17311;BME280;8773;43.300;0.394;2023-04-03T05:46:56;100396.34;;;10.90;68.26
17311;BME280;8773;43.300;0.394;2023-04-03T05:49:24;100397.19;;;10.81;68.63
17311;BME280;8773;43.300;0.394;2023-04-03T05:51:53;100399.88;;;10.52;69.34
17311;BME280;8773;43.300;0.394;2023-04-03T05:54:23;100397.06;;;10.73;69.64
17311;BME280;8773;43.300;0.394;2023-04-03T05:56:52;100395.78;;;10.77;69.32
17311;BME280;8773;43.300;0.394;2023-04-03T05:59:21;100397.75;;;10.75;69.25
17311;BME280;8773;43.300;0.394;2023-04-03T06:01:49;100397.06;;;10.63;69.92
17311;BME280;8773;43.300;0.394;2023-04-03T06:04:17;100388.06;;;10.74;69.50
17311;BME280;8773;43.300;0.394;2023-04-03T06:06:48;100399.88;;;10.62;70.28
17311;BME280;8773;43.300;0.394;2023-04-03T06:09:21;100398.88;;;10.72;69.40
17311;BME280;8773;43.300;0.394;2023-04-03T06:11:49;100397.91;;;10.83;68.65
17311;BME280;8773;43.300;0.394;2023-04-03T06:14:18;100403.94;;;10.95;68.91
17311;BME280;8773;43.300;0.394;2023-04-03T06:16:46;100403.09;;;10.85;69.43
17311;BME280;8773;43.300;0.394;2023-04-03T06:19:14;100400.84;;;10.90;68.37
17311;BME280;8773;43.300;0.394;2023-04-03T06:21:42;100418.28;;;10.74;69.13
17311;BME280;8773;43.300;0.394;2023-04-03T06:24:12;100407.88;;;10.91;68.24
17311;BME280;8773;43.300;0.394;2023-04-03T06:26:43;100410.00;;;10.97;67.77
17311;BME280;8773;43.300;0.394;2023-04-03T06:29:13;100411.25;;;10.73;67.51
17311;BME280;8773;43.300;0.394;2023-04-03T06:31:41;100404.38;;;10.81;67.83
17311;BME280;8773;43.300;0.394;2023-04-03T06:34:09;100410.00;;;10.97;66.83
17311;BME280;8773;43.300;0.394;2023-04-03T06:36:39;100405.06;;;11.02;67.13
17311;BME280;8773;43.300;0.394;2023-04-03T06:39:08;100401.06;;;11.25;66.34
17311;BME280;8773;43.300;0.394;2023-04-03T06:41:36;100404.47;;;11.27;66.23
17311;BME280;8773;43.300;0.394;2023-04-03T06:44:05;100397.03;;;11.31;65.96
17311;BME280;8773;43.300;0.394;2023-04-03T06:46:37;100397.16;;;11.39;65.89
17311;BME280;8773;43.300;0.394;2023-04-03T06:49:06;100399.38;;;11.24;65.34
17311;BME280;8773;43.300;0.394;2023-04-03T06:51:36;100387.59;;;11.27;65.65
17311;BME280;8773;43.300;0.394;2023-04-03T06:54:05;100390.03;;;10.91;66.59
17311;BME280;8773;43.300;0.394;2023-04-03T06:56:34;100396.06;;;10.93;65.82
17311;BME280;8773;43.300;0.394;2023-04-03T06:59:03;100392.63;;;11.20;66.11
17311;BME280;8773;43.300;0.394;2023-04-03T07:01:32;100382.22;;;11.46;65.30
17311;BME280;8773;43.300;0.394;2023-04-03T07:04:00;100383.53;;;11.60;64.42
17311;BME280;8773;43.300;0.394;2023-04-03T07:06:28;100387.28;;;11.77;63.76
17311;BME280;8773;43.300;0.394;2023-04-03T07:08:57;100388.88;;;11.69;63.24
17311;BME280;8773;43.300;0.394;2023-04-03T07:11:25;100386.28;;;11.50;62.87
17311;BME280;8773;43.300;0.394;2023-04-03T07:13:54;100387.97;;;11.79;63.51
17311;BME280;8773;43.300;0.394;2023-04-03T07:16:23;100382.03;;;12.12;62.62
17311;BME280;8773;43.300;0.394;2023-04-03T07:18:54;100382.66;;;12.24;61.98
17311;BME280;8773;43.300;0.394;2023-04-03T07:21:22;100382.66;;;12.41;61.46
17311;BME280;8773;43.300;0.394;2023-04-03T07:23:50;100384.25;;;12.62;61.03
17311;BME280;8773;43.300;0.394;2023-04-03T07:26:18;100376.81;;;12.73;60.49
17311;BME280;8773;43.300;0.394;2023-04-03T07:28:48;100379.94;;;12.51;60.25
17311;BME280;8773;43.300;0.394;2023-04-03T07:31:17;100377.13;;;12.53;61.13
17311;BME280;8773;43.300;0.394;2023-04-03T07:33:45;100369.41;;;12.67;59.59
17311;BME280;8773;43.300;0.394;2023-04-03T07:36:18;100372.38;;;12.82;59.43
17311;BME280;8773;43.300;0.394;2023-04-03T07:38:46;100361.16;;;13.04;59.54
17311;BME280;8773;43.300;0.394;2023-04-03T07:41:16;100365.81;;;13.02;59.30
17311;BME280;8773;43.300;0.394;2023-04-03T07:43:45;100365.25;;;13.17;59.36
17311;BME280;8773;43.300;0.394;2023-04-03T07:46:13;100365.56;;;13.14;59.19
17311;BME280;8773;43.300;0.394;2023-04-03T07:48:41;100360.13;;;13.23;58.82
17311;BME280;8773;43.300;0.394;2023-04-03T07:51:09;100350.94;;;13.34;58.40
17311;BME280;8773;43.300;0.394;2023-04-03T07:53:39;100360.13;;;13.23;59.30
17311;BME280;8773;43.300;0.394;2023-04-03T07:56:07;100362.91;;;13.14;58.62
17311;BME280;8773;43.300;0.394;2023-04-03T07:58:36;100352.84;;;13.16;58.46
17311;BME280;8773;43.300;0.394;2023-04-03T08:01:04;100356.78;;;13.29;58.77
17311;BME280;8773;43.300;0.394;2023-04-03T08:03:32;100360.72;;;13.43;58.43
17311;BME280;8773;43.300;0.394;2023-04-03T08:06:03;100352.59;;;13.61;57.76
17311;BME280;8773;43.300;0.394;2023-04-03T08:08:35;100354.69;;;13.75;57.69
17311;BME280;8773;43.300;0.394;2023-04-03T08:11:04;100355.94;;;13.55;58.04
17311;BME280;8773;43.300;0.394;2023-04-03T08:13:34;100362.81;;;13.57;56.69
17311;BME280;8773;43.300;0.394;2023-04-03T08:16:10;100356.28;;;13.60;57.73
17311;BME280;8773;43.300;0.394;2023-04-03T08:18:38;100359.03;;;13.42;57.71
17311;BME280;8773;43.300;0.394;2023-04-03T08:21:07;100358.13;;;13.59;58.16
17311;BME280;8773;43.300;0.394;2023-04-03T08:23:35;100362.25;;;13.80;57.14
17311;BME280;8773;43.300;0.394;2023-04-03T08:26:09;100359.50;;;13.63;56.43
17311;BME280;8773;43.300;0.394;2023-04-03T08:28:39;100357.50;;;13.65;57.39
17311;BME280;8773;43.300;0.394;2023-04-03T08:31:09;100357.53;;;13.73;57.22
17311;BME280;8773;43.300;0.394;2023-04-03T08:33:38;100360.38;;;14.06;55.15
17311;BME280;8773;43.300;0.394;2023-04-03T08:36:15;100352.63;;;14.03;55.43
17311;BME280;8773;43.300;0.394;2023-04-03T08:38:43;100358.41;;;14.32;55.54
17311;BME280;8773;43.300;0.394;2023-04-03T08:41:18;100353.50;;;14.20;55.20
17311;BME280;8773;43.300;0.394;2023-04-03T08:43:56;100347.16;;;14.37;54.98
17311;BME280;8773;43.300;0.394;2023-04-03T08:46:38;100339.63;;;14.49;55.09
17311;BME280;8773;43.300;0.394;2023-04-03T08:49:13;100341.63;;;14.38;54.24
17311;BME280;8773;43.300;0.394;2023-04-03T08:51:45;100342.28;;;14.32;53.45
17311;BME280;8773;43.300;0.394;2023-04-03T08:54:22;100337.59;;;14.34;52.61
17311;BME280;8773;43.300;0.394;2023-04-03T08:56:54;100337.56;;;14.26;52.33
17311;BME280;8773;43.300;0.394;2023-04-03T08:59:27;100333.38;;;14.32;53.09
17311;BME280;8773;43.300;0.394;2023-04-03T09:01:57;100333.72;;;14.37;52.69
17311;BME280;8773;43.300;0.394;2023-04-03T09:04:31;100323.31;;;14.66;52.79
17311;BME280;8773;43.300;0.394;2023-04-03T09:07:05;100325.22;;;14.74;52.06
17311;BME280;8773;43.300;0.394;2023-04-03T09:09:39;100319.50;;;14.93;52.22
17311;BME280;8773;43.300;0.394;2023-04-03T09:12:17;100321.47;;;15.16;51.11
17311;BME280;8773;43.300;0.394;2023-04-03T09:14:52;100310.09;;;15.45;50.57
17311;BME280;8773;43.300;0.394;2023-04-03T09:17:35;100309.84;;;15.70;50.18
17311;BME280;8773;43.300;0.394;2023-04-03T09:20:16;100308.31;;;15.29;50.07
17311;BME280;8773;43.300;0.394;2023-04-03T09:22:47;100308.31;;;15.29;49.85
17311;BME280;8773;43.300;0.394;2023-04-03T09:25:20;100308.41;;;14.80;50.90
17311;BME280;8773;43.300;0.394;2023-04-03T09:27:51;100305.38;;;14.75;51.90
17311;BME280;8773;43.300;0.394;2023-04-03T09:30:20;100300.34;;;14.88;51.16
17311;BME280;8773;43.300;0.394;2023-04-03T09:32:51;100297.78;;;14.70;50.88
17311;BME280;8773;43.300;0.394;2023-04-03T09:35:23;100295.56;;;15.15;51.45
17311;BME280;8773;43.300;0.394;2023-04-03T09:38:16;100303.19;;;15.50;50.18
17311;BME280;8773;43.300;0.394;2023-04-03T09:40:46;100296.47;;;14.83;50.62
17311;BME280;8773;43.300;0.394;2023-04-03T09:43:25;100297.31;;;14.99;50.81
17311;BME280;8773;43.300;0.394;2023-04-03T09:45:55;100294.25;;;15.02;51.26
17311;BME280;8773;43.300;0.394;2023-04-03T09:48:24;100299.00;;;14.84;50.07
17311;BME280;8773;43.300;0.394;2023-04-03T09:50:58;100297.09;;;15.17;48.96
17311;BME280;8773;43.300;0.394;2023-04-03T09:53:29;100285.03;;;15.52;49.07
17311;BME280;8773;43.300;0.394;2023-04-03T09:55:57;100287.66;;;15.68;48.88
17311;BME280;8773;43.300;0.394;2023-04-03T09:58:29;100279.72;;;15.83;49.13
17311;BME280;8773;43.300;0.394;2023-04-03T10:01:23;100289.88;;;15.96;47.73
17311;BME280;8773;43.300;0.394;2023-04-03T10:04:07;100285.78;;;16.08;48.64
17311;BME280;8773;43.300;0.394;2023-04-03T10:06:38;100283.09;;;16.08;46.61
17311;BME280;8773;43.300;0.394;2023-04-03T10:09:21;100278.88;;;16.05;47.07
17311;BME280;8773;43.300;0.394;2023-04-03T10:12:01;100279.50;;;16.16;47.47
17311;BME280;8773;43.300;0.394;2023-04-03T10:14:33;100279.78;;;15.98;46.44
17311;BME280;8773;43.300;0.394;2023-04-03T10:17:10;100265.97;;;16.24;46.63
17311;BME280;8773;43.300;0.394;2023-04-03T10:19:45;100249.59;;;15.80;46.87
17311;BME280;8773;43.300;0.394;2023-04-03T10:22:19;100257.25;;;15.91;47.17
17311;BME280;8773;43.300;0.394;2023-04-03T10:24:56;100256.56;;;15.58;46.92
17311;BME280;8773;43.300;0.394;2023-04-03T10:27:42;100245.78;;;15.27;48.45
17311;BME280;8773;43.300;0.394;2023-04-03T10:30:28;100248.53;;;15.02;48.98
17311;BME280;8773;43.300;0.394;2023-04-03T10:33:08;100245.38;;;14.91;48.62
17311;BME280;8773;43.300;0.394;2023-04-03T10:35:52;100242.38;;;15.41;48.22
17311;BME280;8773;43.300;0.394;2023-04-03T10:38:33;100233.03;;;15.13;48.42
17311;BME280;8773;43.300;0.394;2023-04-03T10:41:09;100232.94;;;14.73;47.72
17311;BME280;8773;43.300;0.394;2023-04-03T10:43:49;100224.75;;;14.43;48.83
17311;BME280;8773;43.300;0.394;2023-04-03T10:46:23;100226.78;;;14.08;49.60
17311;BME280;8773;43.300;0.394;2023-04-03T10:49:05;100218.50;;;14.99;49.41
17311;BME280;8773;43.300;0.394;2023-04-03T10:51:42;100218.22;;;15.56;47.17
17311;BME280;8773;43.300;0.394;2023-04-03T10:54:20;100212.78;;;15.41;47.13
17311;BME280;8773;43.300;0.394;2023-04-03T10:56:52;100205.56;;;15.64;44.82
17311;BME280;8773;43.300;0.394;2023-04-03T10:59:41;100200.34;;;15.94;44.20
17311;BME280;8773;43.300;0.394;2023-04-03T11:02:17;100197.88;;;15.22;44.91
17311;BME280;8773;43.300;0.394;2023-04-03T11:04:53;100199.34;;;15.33;44.75
17311;BME280;8773;43.300;0.394;2023-04-03T11:07:26;100194.28;;;15.38;42.67
17311;BME280;8773;43.300;0.394;2023-04-03T11:09:57;100186.28;;;15.53;43.78
17311;BME280;8773;43.300;0.394;2023-04-03T11:12:35;100185.38;;;16.14;41.80
17311;BME280;8773;43.300;0.394;2023-04-03T11:15:11;100192.28;;;15.63;43.59
17311;BME280;8773;43.300;0.394;2023-04-03T11:17:46;100177.75;;;15.80;43.56
17311;BME280;8773;43.300;0.394;2023-04-03T11:20:20;100178.09;;;16.00;43.48
17311;BME280;8773;43.300;0.394;2023-04-03T11:22:58;100177.97;;;15.93;42.68
17311;BME280;8773;43.300;0.394;2023-04-03T11:25:29;100171.09;;;15.60;43.00
17311;BME280;8773;43.300;0.394;2023-04-03T11:28:00;100166.59;;;15.52;45.15
17311;BME280;8773;43.300;0.394;2023-04-03T11:30:32;100173.09;;;15.35;44.04
17311;BME280;8773;43.300;0.394;2023-04-03T11:33:17;100160.63;;;15.42;44.67
17311;BME280;8773;43.300;0.394;2023-04-03T11:35:51;100165.91;;;15.58;44.70
17311;BME280;8773;43.300;0.394;2023-04-03T11:38:24;100149.41;;;15.61;46.33
17311;BME280;8773;43.300;0.394;2023-04-03T11:40:54;100156.97;;;15.35;46.50
17311;BME280;8773;43.300;0.394;2023-04-03T11:43:25;100151.16;;;14.60;48.06
17311;BME280;8773;43.300;0.394;2023-04-03T11:45:58;100142.91;;;14.69;47.94
17311;BME280;8773;43.300;0.394;2023-04-03T11:48:59;100137.78;;;14.52;47.33
17311;BME280;8773;43.300;0.394;2023-04-03T11:51:51;100140.81;;;14.24;46.40
17311;BME280;8773;43.300;0.394;2023-04-03T11:54:35;100138.84;;;13.94;46.73
17311;BME280;8773;43.300;0.394;2023-04-03T11:57:44;100137.84;;;14.03;46.75
17311;BME280;8773;43.300;0.394;2023-04-03T12:00:46;100126.56;;;14.24;46.10
17311;BME280;8773;43.300;0.394;2023-04-03T12:03:30;100123.41;;;14.12;46.44
17311;BME280;8773;43.300;0.394;2023-04-03T12:09:22;100112.41;;;14.54;45.28
17311;BME280;8773;43.300;0.394;2023-04-03T12:11:51;100104.53;;;14.45;44.38
17311;BME280;8773;43.300;0.394;2023-04-03T12:14:22;100107.50;;;14.74;43.68
17311;BME280;8773;43.300;0.394;2023-04-03T12:16:53;100095.44;;;15.01;43.33
17311;BME280;8773;43.300;0.394;2023-04-03T12:19:31;100084.38;;;15.27;41.40
17311;BME280;8773;43.300;0.394;2023-04-03T12:22:15;100076.84;;;15.68;41.59
17311;BME280;8773;43.300;0.394;2023-04-03T12:24:45;100064.97;;;16.00;39.43
17311;BME280;8773;43.300;0.394;2023-04-03T12:27:26;100064.72;;;16.10;38.14
17311;BME280;8773;43.300;0.394;2023-04-03T12:30:00;100047.34;;;16.56;38.01
17311;BME280;8773;43.300;0.394;2023-04-03T12:35:44;100045.78;;;15.57;39.04
17311;BME280;8773;43.300;0.394;2023-04-03T12:41:31;100037.13;;;16.52;38.26
17311;BME280;8773;43.300;0.394;2023-04-03T12:44:15;100031.13;;;17.00;39.36
17311;BME280;8773;43.300;0.394;2023-04-03T12:46:49;100028.69;;;17.06;36.50
17311;BME280;8773;43.300;0.394;2023-04-03T12:49:33;100023.75;;;17.09;36.68
17311;BME280;8773;43.300;0.394;2023-04-03T12:52:17;100020.41;;;16.71;37.40
17311;BME280;8773;43.300;0.394;2023-04-03T12:54:48;100024.81;;;15.76;39.44
17311;BME280;8773;43.300;0.394;2023-04-03T12:57:19;100020.97;;;15.70;40.38
17311;BME280;8773;43.300;0.394;2023-04-03T12:59:48;100018.41;;;15.77;39.54
17311;BME280;8773;43.300;0.394;2023-04-03T13:02:24;100017.25;;;16.09;39.66
17311;BME280;8773;43.300;0.394;2023-04-03T13:04:54;100008.97;;;16.39;39.20
17311;BME280;8773;43.300;0.394;2023-04-03T13:07:27;100008.88;;;16.48;38.80
17311;BME280;8773;43.300;0.394;2023-04-03T13:10:03;100004.78;;;16.52;37.96
17311;BME280;8773;43.300;0.394;2023-04-03T13:12:32;100009.97;;;16.38;37.96
17311;BME280;8773;43.300;0.394;2023-04-03T13:15:03;99997.38;;;16.24;38.00
17311;BME280;8773;43.300;0.394;2023-04-03T13:17:40;99996.41;;;16.47;38.98
17311;BME280;8773;43.300;0.394;2023-04-03T13:20:14;99998.00;;;15.59;38.70
17311;BME280;8773;43.300;0.394;2023-04-03T13:22:48;99992.84;;;15.72;39.18
17311;BME280;8773;43.300;0.394;2023-04-03T13:25:20;99988.84;;;15.68;39.96
17311;BME280;8773;43.300;0.394;2023-04-03T13:27:49;99982.56;;;15.91;40.40
17311;BME280;8773;43.300;0.394;2023-04-03T13:30:29;99976.19;;;16.07;38.31
17311;BME280;8773;43.300;0.394;2023-04-03T13:33:00;99975.34;;;16.21;38.38